sensor_id;sensor_type;location;lat;lon;timestamp;P1;durP1;ratioP1;P2;durP2;ratioP2
7823;SDS011;3957;48.61947800;9.05303100;2023-03-03T00:00:40;37.57;;;23.00;;
7823;SDS011;3957;48.61947800;9.05303100;2023-03-03T00:01:40;40.05;;;22.67;;
7823;SDS011;3957;48.61947800;9.05303100;2023-03-03T00:02:41;36.53;;;22.83;;
7823;SDS011;3957;48.61947800;9.05303100;2023-03-03T00:03:41;36.10;;;21.70;;
7823;SDS011;3957;48.61947800;9.05303100;2023-03-03T00:04:42;35.17;;;22.13;;
7823;SDS011;3957;48.61947800;9.05303100;2023-03-03T00:05:42;37.07;;;22.30;;
7823;SDS011;3957;48.61947800;9.05303100;2023-03-03T00:06:43;37.00;;;23.40;;
7823;SDS011;3957;48.61947800;9.05303100;2023-03-03T00:07:44;38.70;;;23.25;;
7823;SDS011;3957;48.61947800;9.05303100;2023-03-03T00:08:45;38.30;;;23.20;;
7823;SDS011;3957;48.61947800;9.05303100;2023-03-03T00:09:46;43.38;;;25.38;;
7823;SDS011;3957;48.61947800;9.05303100;2023-03-03T00:10:46;46.17;;;26.17;;
7823;SDS011;3957;48.61947800;9.05303100;2023-03-03T00:11:49;39.50;;;24.23;;
7823;SDS011;3957;48.61947800;9.05303100;2023-03-03T00:12:54;43.95;;;23.73;;
7823;SDS011;3957;48.61947800;9.05303100;2023-03-03T00:13:55;40.38;;;25.33;;
7823;SDS011;3957;48.61947800;9.05303100;2023-03-03T00:14:56;40.03;;;24.40;;
7823;SDS011;3957;48.61947800;9.05303100;2023-03-03T00:16:07;39.93;;;23.73;;
7823;SDS011;3957;48.61947800;9.05303100;2023-03-03T00:17:15;37.88;;;23.33;;
7823;SDS011;3957;48.61947800;9.05303100;2023-03-03T00:18:29;38.60;;;23.17;;
7823;SDS011;3957;48.61947800;9.05303100;2023-03-03T00:19:37;39.47;;;23.23;;
7823;SDS011;3957;48.61947800;9.05303100;2023-03-03T00:20:39;34.45;;;22.83;;
7823;SDS011;3957;48.61947800;9.05303100;2023-03-03T00:21:40;35.90;;;22.63;;
7823;SDS011;3957;48.61947800;9.05303100;2023-03-03T00:22:43;34.63;;;22.42;;
7823;SDS011;3957;48.61947800;9.05303100;2023-03-03T00:23:44;39.23;;;24.23;;
7823;SDS011;3957;48.61947800;9.05303100;2023-03-03T00:24:45;46.55;;;27.08;;
7823;SDS011;3957;48.61947800;9.05303100;2023-03-03T00:25:47;48.70;;;26.20;;
7823;SDS011;3957;48.61947800;9.05303100;2023-03-03T00:27:50;42.22;;;24.75;;
7823;SDS011;3957;48.61947800;9.05303100;2023-03-03T00:28:51;41.10;;;24.47;;
7823;SDS011;3957;48.61947800;9.05303100;2023-03-03T00:29:56;38.50;;;24.33;;
7823;SDS011;3957;48.61947800;9.05303100;2023-03-03T00:30:59;42.67;;;24.88;;
7823;SDS011;3957;48.61947800;9.05303100;2023-03-03T00:34:31;42.88;;;25.83;;
7823;SDS011;3957;48.61947800;9.05303100;2023-03-03T00:35:33;39.57;;;23.97;;
7823;SDS011;3957;48.61947800;9.05303100;2023-03-03T00:36:37;41.88;;;24.92;;
7823;SDS011;3957;48.61947800;9.05303100;2023-03-03T00:37:40;38.92;;;24.40;;
7823;SDS011;3957;48.61947800;9.05303100;2023-03-03T00:38:41;33.70;;;22.47;;
7823;SDS011;3957;48.61947800;9.05303100;2023-03-03T00:39:42;42.05;;;25.58;;
7823;SDS011;3957;48.61947800;9.05303100;2023-03-03T00:40:42;46.03;;;25.53;;
7823;SDS011;3957;48.61947800;9.05303100;2023-03-03T00:41:43;44.40;;;26.03;;
7823;SDS011;3957;48.61947800;9.05303100;2023-03-03T00:43:01;47.05;;;25.70;;
7823;SDS011;3957;48.61947800;9.05303100;2023-03-03T00:46:50;42.05;;;25.40;;
7823;SDS011;3957;48.61947800;9.05303100;2023-03-03T00:47:53;38.25;;;25.00;;
7823;SDS011;3957;48.61947800;9.05303100;2023-03-03T00:48:55;40.25;;;24.27;;
7823;SDS011;3957;48.61947800;9.05303100;2023-03-03T00:50:18;41.15;;;24.27;;
7823;SDS011;3957;48.61947800;9.05303100;2023-03-03T00:51:28;40.10;;;24.55;;
7823;SDS011;3957;48.61947800;9.05303100;2023-03-03T00:52:30;44.25;;;25.77;;
7823;SDS011;3957;48.61947800;9.05303100;2023-03-03T00:53:34;44.47;;;25.80;;
7823;SDS011;3957;48.61947800;9.05303100;2023-03-03T00:54:34;41.15;;;24.40;;
7823;SDS011;3957;48.61947800;9.05303100;2023-03-03T00:55:35;45.80;;;25.40;;
7823;SDS011;3957;48.61947800;9.05303100;2023-03-03T00:56:35;42.88;;;26.25;;
7823;SDS011;3957;48.61947800;9.05303100;2023-03-03T00:57:36;41.28;;;26.10;;
7823;SDS011;3957;48.61947800;9.05303100;2023-03-03T00:58:38;40.13;;;23.92;;
7823;SDS011;3957;48.61947800;9.05303100;2023-03-03T00:59:38;40.30;;;24.13;;
7823;SDS011;3957;48.61947800;9.05303100;2023-03-03T01:00:39;46.33;;;26.90;;
7823;SDS011;3957;48.61947800;9.05303100;2023-03-03T01:01:42;43.97;;;25.15;;
7823;SDS011;3957;48.61947800;9.05303100;2023-03-03T01:02:42;41.65;;;24.35;;
7823;SDS011;3957;48.61947800;9.05303100;2023-03-03T01:03:45;42.30;;;25.25;;
7823;SDS011;3957;48.61947800;9.05303100;2023-03-03T01:04:47;43.27;;;24.97;;
7823;SDS011;3957;48.61947800;9.05303100;2023-03-03T01:05:50;40.25;;;24.63;;
7823;SDS011;3957;48.61947800;9.05303100;2023-03-03T01:06:51;40.33;;;24.70;;
7823;SDS011;3957;48.61947800;9.05303100;2023-03-03T01:07:52;41.67;;;24.40;;
7823;SDS011;3957;48.61947800;9.05303100;2023-03-03T01:08:52;40.93;;;24.50;;
7823;SDS011;3957;48.61947800;9.05303100;2023-03-03T01:09:53;46.63;;;26.10;;
7823;SDS011;3957;48.61947800;9.05303100;2023-03-03T01:10:55;42.77;;;25.47;;
7823;SDS011;3957;48.61947800;9.05303100;2023-03-03T01:11:57;42.78;;;24.65;;
7823;SDS011;3957;48.61947800;9.05303100;2023-03-03T01:12:58;44.65;;;25.13;;
7823;SDS011;3957;48.61947800;9.05303100;2023-03-03T01:13:59;44.42;;;25.05;;
7823;SDS011;3957;48.61947800;9.05303100;2023-03-03T01:15:00;47.38;;;25.88;;
7823;SDS011;3957;48.61947800;9.05303100;2023-03-03T01:16:02;42.80;;;25.03;;
7823;SDS011;3957;48.61947800;9.05303100;2023-03-03T01:17:03;42.60;;;24.77;;
7823;SDS011;3957;48.61947800;9.05303100;2023-03-03T01:18:03;41.00;;;24.67;;
7823;SDS011;3957;48.61947800;9.05303100;2023-03-03T01:19:03;42.10;;;25.17;;
7823;SDS011;3957;48.61947800;9.05303100;2023-03-03T01:20:04;43.17;;;25.17;;
7823;SDS011;3957;48.61947800;9.05303100;2023-03-03T01:21:07;41.25;;;25.33;;
7823;SDS011;3957;48.61947800;9.05303100;2023-03-03T01:22:08;38.70;;;24.75;;
7823;SDS011;3957;48.61947800;9.05303100;2023-03-03T01:23:09;38.13;;;23.67;;
7823;SDS011;3957;48.61947800;9.05303100;2023-03-03T01:24:09;46.20;;;25.52;;
7823;SDS011;3957;48.61947800;9.05303100;2023-03-03T01:25:10;43.67;;;25.27;;
7823;SDS011;3957;48.61947800;9.05303100;2023-03-03T01:26:11;39.78;;;24.35;;
7823;SDS011;3957;48.61947800;9.05303100;2023-03-03T01:27:12;39.10;;;24.30;;
7823;SDS011;3957;48.61947800;9.05303100;2023-03-03T01:28:13;46.35;;;26.42;;
7823;SDS011;3957;48.61947800;9.05303100;2023-03-03T01:29:13;46.37;;;26.30;;
7823;SDS011;3957;48.61947800;9.05303100;2023-03-03T01:30:14;43.85;;;25.70;;
7823;SDS011;3957;48.61947800;9.05303100;2023-03-03T01:31:14;40.88;;;24.77;;
7823;SDS011;3957;48.61947800;9.05303100;2023-03-03T01:32:15;44.70;;;26.20;;
7823;SDS011;3957;48.61947800;9.05303100;2023-03-03T01:33:15;45.97;;;27.07;;
7823;SDS011;3957;48.61947800;9.05303100;2023-03-03T01:34:18;46.55;;;26.88;;
7823;SDS011;3957;48.61947800;9.05303100;2023-03-03T01:35:18;47.95;;;26.33;;
7823;SDS011;3957;48.61947800;9.05303100;2023-03-03T01:36:23;44.28;;;26.20;;
7823;SDS011;3957;48.61947800;9.05303100;2023-03-03T01:37:24;44.50;;;26.15;;
7823;SDS011;3957;48.61947800;9.05303100;2023-03-03T01:38:25;38.57;;;24.77;;
7823;SDS011;3957;48.61947800;9.05303100;2023-03-03T01:39:26;42.70;;;25.17;;
7823;SDS011;3957;48.61947800;9.05303100;2023-03-03T01:40:28;38.35;;;23.92;;
7823;SDS011;3957;48.61947800;9.05303100;2023-03-03T01:41:30;39.63;;;24.08;;
7823;SDS011;3957;48.61947800;9.05303100;2023-03-03T01:42:34;41.95;;;24.60;;
7823;SDS011;3957;48.61947800;9.05303100;2023-03-03T01:43:34;44.57;;;26.03;;
7823;SDS011;3957;48.61947800;9.05303100;2023-03-03T01:44:44;42.47;;;25.00;;
7823;SDS011;3957;48.61947800;9.05303100;2023-03-03T01:47:11;41.78;;;25.33;;
7823;SDS011;3957;48.61947800;9.05303100;2023-03-03T01:48:17;44.40;;;26.23;;
7823;SDS011;3957;48.61947800;9.05303100;2023-03-03T01:49:25;46.72;;;26.63;;
7823;SDS011;3957;48.61947800;9.05303100;2023-03-03T01:52:02;41.83;;;25.67;;
7823;SDS011;3957;48.61947800;9.05303100;2023-03-03T01:53:21;45.88;;;25.70;;
7823;SDS011;3957;48.61947800;9.05303100;2023-03-03T01:54:33;40.45;;;24.77;;
7823;SDS011;3957;48.61947800;9.05303100;2023-03-03T01:55:40;42.88;;;25.55;;
7823;SDS011;3957;48.61947800;9.05303100;2023-03-03T01:56:41;43.78;;;26.30;;
7823;SDS011;3957;48.61947800;9.05303100;2023-03-03T01:57:44;44.25;;;25.98;;
7823;SDS011;3957;48.61947800;9.05303100;2023-03-03T01:58:48;48.30;;;26.80;;
7823;SDS011;3957;48.61947800;9.05303100;2023-03-03T02:00:05;48.45;;;28.10;;
7823;SDS011;3957;48.61947800;9.05303100;2023-03-03T02:01:13;44.83;;;25.60;;
7823;SDS011;3957;48.61947800;9.05303100;2023-03-03T02:02:17;45.55;;;26.35;;
7823;SDS011;3957;48.61947800;9.05303100;2023-03-03T02:03:19;44.55;;;25.75;;
7823;SDS011;3957;48.61947800;9.05303100;2023-03-03T02:04:22;45.72;;;26.23;;
7823;SDS011;3957;48.61947800;9.05303100;2023-03-03T02:05:22;48.72;;;27.02;;
7823;SDS011;3957;48.61947800;9.05303100;2023-03-03T02:06:26;47.78;;;26.65;;
7823;SDS011;3957;48.61947800;9.05303100;2023-03-03T02:07:29;52.15;;;28.25;;
7823;SDS011;3957;48.61947800;9.05303100;2023-03-03T02:08:33;47.75;;;26.10;;
7823;SDS011;3957;48.61947800;9.05303100;2023-03-03T02:09:56;44.97;;;26.17;;
7823;SDS011;3957;48.61947800;9.05303100;2023-03-03T02:11:02;45.08;;;26.88;;
7823;SDS011;3957;48.61947800;9.05303100;2023-03-03T02:12:06;44.75;;;25.92;;
7823;SDS011;3957;48.61947800;9.05303100;2023-03-03T02:13:08;45.47;;;26.35;;
7823;SDS011;3957;48.61947800;9.05303100;2023-03-03T02:14:09;48.60;;;27.65;;
7823;SDS011;3957;48.61947800;9.05303100;2023-03-03T02:15:29;48.90;;;27.77;;
7823;SDS011;3957;48.61947800;9.05303100;2023-03-03T02:16:32;45.35;;;26.02;;
7823;SDS011;3957;48.61947800;9.05303100;2023-03-03T02:17:33;46.80;;;26.40;;
7823;SDS011;3957;48.61947800;9.05303100;2023-03-03T02:18:33;45.17;;;26.17;;
7823;SDS011;3957;48.61947800;9.05303100;2023-03-03T02:21:05;51.28;;;27.95;;
7823;SDS011;3957;48.61947800;9.05303100;2023-03-03T02:22:10;44.43;;;26.47;;
7823;SDS011;3957;48.61947800;9.05303100;2023-03-03T02:24:46;49.33;;;26.75;;
7823;SDS011;3957;48.61947800;9.05303100;2023-03-03T02:26:57;47.72;;;28.02;;
7823;SDS011;3957;48.61947800;9.05303100;2023-03-03T02:27:58;48.20;;;27.17;;
7823;SDS011;3957;48.61947800;9.05303100;2023-03-03T02:28:59;45.42;;;26.35;;
7823;SDS011;3957;48.61947800;9.05303100;2023-03-03T02:30:09;45.88;;;26.60;;
7823;SDS011;3957;48.61947800;9.05303100;2023-03-03T02:31:15;43.73;;;26.03;;
7823;SDS011;3957;48.61947800;9.05303100;2023-03-03T02:32:17;47.97;;;27.77;;
7823;SDS011;3957;48.61947800;9.05303100;2023-03-03T02:33:18;45.00;;;26.67;;
7823;SDS011;3957;48.61947800;9.05303100;2023-03-03T02:34:18;48.47;;;27.47;;
7823;SDS011;3957;48.61947800;9.05303100;2023-03-03T02:36:32;46.50;;;26.63;;
7823;SDS011;3957;48.61947800;9.05303100;2023-03-03T02:37:34;47.72;;;26.73;;
7823;SDS011;3957;48.61947800;9.05303100;2023-03-03T02:38:40;42.33;;;24.77;;
7823;SDS011;3957;48.61947800;9.05303100;2023-03-03T02:39:47;42.88;;;24.75;;
7823;SDS011;3957;48.61947800;9.05303100;2023-03-03T02:40:55;47.70;;;26.13;;
7823;SDS011;3957;48.61947800;9.05303100;2023-03-03T02:42:07;41.45;;;25.83;;
7823;SDS011;3957;48.61947800;9.05303100;2023-03-03T02:43:16;46.13;;;25.70;;
7823;SDS011;3957;48.61947800;9.05303100;2023-03-03T02:44:22;41.47;;;24.35;;
7823;SDS011;3957;48.61947800;9.05303100;2023-03-03T02:45:24;39.53;;;24.25;;
7823;SDS011;3957;48.61947800;9.05303100;2023-03-03T02:46:25;39.92;;;25.83;;
7823;SDS011;3957;48.61947800;9.05303100;2023-03-03T02:47:27;44.45;;;25.70;;
7823;SDS011;3957;48.61947800;9.05303100;2023-03-03T02:48:27;48.67;;;26.77;;
7823;SDS011;3957;48.61947800;9.05303100;2023-03-03T02:49:29;46.63;;;26.03;;
7823;SDS011;3957;48.61947800;9.05303100;2023-03-03T02:50:32;41.45;;;25.50;;
7823;SDS011;3957;48.61947800;9.05303100;2023-03-03T02:51:33;44.73;;;25.07;;
7823;SDS011;3957;48.61947800;9.05303100;2023-03-03T02:52:34;42.97;;;24.25;;
7823;SDS011;3957;48.61947800;9.05303100;2023-03-03T02:53:35;47.33;;;26.58;;
7823;SDS011;3957;48.61947800;9.05303100;2023-03-03T02:54:36;43.47;;;26.40;;
7823;SDS011;3957;48.61947800;9.05303100;2023-03-03T02:55:37;43.65;;;25.13;;
7823;SDS011;3957;48.61947800;9.05303100;2023-03-03T02:56:39;45.30;;;24.88;;
7823;SDS011;3957;48.61947800;9.05303100;2023-03-03T02:57:39;40.65;;;24.73;;
7823;SDS011;3957;48.61947800;9.05303100;2023-03-03T02:58:40;42.10;;;24.87;;
7823;SDS011;3957;48.61947800;9.05303100;2023-03-03T02:59:40;39.83;;;24.00;;
7823;SDS011;3957;48.61947800;9.05303100;2023-03-03T03:00:45;39.60;;;23.83;;
7823;SDS011;3957;48.61947800;9.05303100;2023-03-03T03:01:48;41.67;;;24.17;;
7823;SDS011;3957;48.61947800;9.05303100;2023-03-03T03:02:51;42.30;;;24.80;;
7823;SDS011;3957;48.61947800;9.05303100;2023-03-03T03:03:52;42.25;;;24.58;;
7823;SDS011;3957;48.61947800;9.05303100;2023-03-03T03:04:55;43.55;;;24.30;;
7823;SDS011;3957;48.61947800;9.05303100;2023-03-03T03:05:57;42.33;;;24.65;;
7823;SDS011;3957;48.61947800;9.05303100;2023-03-03T03:06:58;43.63;;;24.15;;
7823;SDS011;3957;48.61947800;9.05303100;2023-03-03T03:08:01;43.47;;;24.52;;
7823;SDS011;3957;48.61947800;9.05303100;2023-03-03T03:09:04;42.80;;;25.05;;
7823;SDS011;3957;48.61947800;9.05303100;2023-03-03T03:10:06;40.53;;;24.77;;
7823;SDS011;3957;48.61947800;9.05303100;2023-03-03T03:11:10;45.47;;;25.42;;
7823;SDS011;3957;48.61947800;9.05303100;2023-03-03T03:12:11;45.63;;;27.95;;
7823;SDS011;3957;48.61947800;9.05303100;2023-03-03T03:13:12;47.50;;;26.63;;
7823;SDS011;3957;48.61947800;9.05303100;2023-03-03T03:14:13;48.28;;;27.25;;
7823;SDS011;3957;48.61947800;9.05303100;2023-03-03T03:15:14;47.50;;;26.87;;
7823;SDS011;3957;48.61947800;9.05303100;2023-03-03T03:16:15;46.47;;;27.43;;
7823;SDS011;3957;48.61947800;9.05303100;2023-03-03T03:17:15;46.93;;;26.13;;
7823;SDS011;3957;48.61947800;9.05303100;2023-03-03T03:18:17;43.80;;;25.80;;
7823;SDS011;3957;48.61947800;9.05303100;2023-03-03T03:19:18;50.35;;;27.85;;
7823;SDS011;3957;48.61947800;9.05303100;2023-03-03T03:20:19;44.93;;;25.87;;
7823;SDS011;3957;48.61947800;9.05303100;2023-03-03T03:21:19;42.13;;;25.93;;
7823;SDS011;3957;48.61947800;9.05303100;2023-03-03T03:22:20;44.83;;;26.55;;
7823;SDS011;3957;48.61947800;9.05303100;2023-03-03T03:23:20;46.90;;;25.63;;
7823;SDS011;3957;48.61947800;9.05303100;2023-03-03T03:24:21;48.75;;;26.33;;
7823;SDS011;3957;48.61947800;9.05303100;2023-03-03T03:25:28;44.42;;;26.08;;
7823;SDS011;3957;48.61947800;9.05303100;2023-03-03T03:26:29;44.17;;;26.10;;
7823;SDS011;3957;48.61947800;9.05303100;2023-03-03T03:27:30;43.30;;;26.13;;
7823;SDS011;3957;48.61947800;9.05303100;2023-03-03T03:28:31;48.30;;;26.20;;
7823;SDS011;3957;48.61947800;9.05303100;2023-03-03T03:29:31;46.60;;;28.23;;
7823;SDS011;3957;48.61947800;9.05303100;2023-03-03T03:30:32;46.97;;;27.87;;
7823;SDS011;3957;48.61947800;9.05303100;2023-03-03T03:31:32;53.83;;;28.13;;
7823;SDS011;3957;48.61947800;9.05303100;2023-03-03T03:32:32;50.10;;;28.57;;
7823;SDS011;3957;48.61947800;9.05303100;2023-03-03T03:33:34;51.80;;;27.92;;
7823;SDS011;3957;48.61947800;9.05303100;2023-03-03T03:34:35;50.58;;;28.23;;
7823;SDS011;3957;48.61947800;9.05303100;2023-03-03T03:35:37;51.15;;;28.92;;
7823;SDS011;3957;48.61947800;9.05303100;2023-03-03T03:36:37;48.22;;;28.08;;
7823;SDS011;3957;48.61947800;9.05303100;2023-03-03T03:37:39;48.30;;;27.92;;
7823;SDS011;3957;48.61947800;9.05303100;2023-03-03T03:38:39;53.35;;;27.92;;
7823;SDS011;3957;48.61947800;9.05303100;2023-03-03T03:39:41;48.13;;;27.75;;
7823;SDS011;3957;48.61947800;9.05303100;2023-03-03T03:40:42;46.10;;;27.43;;
7823;SDS011;3957;48.61947800;9.05303100;2023-03-03T03:41:43;47.72;;;26.98;;
7823;SDS011;3957;48.61947800;9.05303100;2023-03-03T03:42:43;45.83;;;27.43;;
7823;SDS011;3957;48.61947800;9.05303100;2023-03-03T03:43:44;47.22;;;26.20;;
7823;SDS011;3957;48.61947800;9.05303100;2023-03-03T03:44:44;50.17;;;27.58;;
7823;SDS011;3957;48.61947800;9.05303100;2023-03-03T03:45:45;52.17;;;28.30;;
7823;SDS011;3957;48.61947800;9.05303100;2023-03-03T03:46:47;48.35;;;27.17;;
7823;SDS011;3957;48.61947800;9.05303100;2023-03-03T03:47:47;47.90;;;28.77;;
7823;SDS011;3957;48.61947800;9.05303100;2023-03-03T03:48:48;51.07;;;27.40;;
7823;SDS011;3957;48.61947800;9.05303100;2023-03-03T03:49:52;48.53;;;26.40;;
7823;SDS011;3957;48.61947800;9.05303100;2023-03-03T03:50:52;55.58;;;29.45;;
7823;SDS011;3957;48.61947800;9.05303100;2023-03-03T03:51:54;53.80;;;28.25;;
7823;SDS011;3957;48.61947800;9.05303100;2023-03-03T03:52:58;49.63;;;28.00;;
7823;SDS011;3957;48.61947800;9.05303100;2023-03-03T03:53:58;48.20;;;27.42;;
7823;SDS011;3957;48.61947800;9.05303100;2023-03-03T03:54:58;49.67;;;27.10;;
7823;SDS011;3957;48.61947800;9.05303100;2023-03-03T03:55:59;46.50;;;27.13;;
7823;SDS011;3957;48.61947800;9.05303100;2023-03-03T03:57:00;47.90;;;27.08;;
7823;SDS011;3957;48.61947800;9.05303100;2023-03-03T03:58:02;49.50;;;27.30;;
7823;SDS011;3957;48.61947800;9.05303100;2023-03-03T03:59:04;51.53;;;28.85;;
7823;SDS011;3957;48.61947800;9.05303100;2023-03-03T04:00:05;51.63;;;28.17;;
7823;SDS011;3957;48.61947800;9.05303100;2023-03-03T04:01:14;48.45;;;27.83;;
7823;SDS011;3957;48.61947800;9.05303100;2023-03-03T04:02:19;43.75;;;26.27;;
7823;SDS011;3957;48.61947800;9.05303100;2023-03-03T04:03:20;50.88;;;28.10;;
7823;SDS011;3957;48.61947800;9.05303100;2023-03-03T04:04:21;45.65;;;27.50;;
7823;SDS011;3957;48.61947800;9.05303100;2023-03-03T04:05:22;49.47;;;28.63;;
7823;SDS011;3957;48.61947800;9.05303100;2023-03-03T04:06:23;47.70;;;27.60;;
7823;SDS011;3957;48.61947800;9.05303100;2023-03-03T04:07:25;47.47;;;27.00;;
7823;SDS011;3957;48.61947800;9.05303100;2023-03-03T04:08:26;51.70;;;28.37;;
7823;SDS011;3957;48.61947800;9.05303100;2023-03-03T04:09:27;46.75;;;26.17;;
7823;SDS011;3957;48.61947800;9.05303100;2023-03-03T04:10:28;38.45;;;24.20;;
7823;SDS011;3957;48.61947800;9.05303100;2023-03-03T04:11:29;39.58;;;24.05;;
7823;SDS011;3957;48.61947800;9.05303100;2023-03-03T04:12:29;41.90;;;24.43;;
7823;SDS011;3957;48.61947800;9.05303100;2023-03-03T04:13:35;44.70;;;25.13;;
7823;SDS011;3957;48.61947800;9.05303100;2023-03-03T04:14:38;42.30;;;24.83;;
7823;SDS011;3957;48.61947800;9.05303100;2023-03-03T04:15:39;39.80;;;23.23;;
7823;SDS011;3957;48.61947800;9.05303100;2023-03-03T04:16:39;35.38;;;21.83;;
7823;SDS011;3957;48.61947800;9.05303100;2023-03-03T04:17:41;34.92;;;21.27;;
7823;SDS011;3957;48.61947800;9.05303100;2023-03-03T04:18:42;38.10;;;22.88;;
7823;SDS011;3957;48.61947800;9.05303100;2023-03-03T04:19:42;33.40;;;21.30;;
7823;SDS011;3957;48.61947800;9.05303100;2023-03-03T04:20:43;35.35;;;21.48;;
7823;SDS011;3957;48.61947800;9.05303100;2023-03-03T04:21:44;36.23;;;21.93;;
7823;SDS011;3957;48.61947800;9.05303100;2023-03-03T04:22:44;37.40;;;22.08;;
7823;SDS011;3957;48.61947800;9.05303100;2023-03-03T04:23:45;40.13;;;24.30;;
7823;SDS011;3957;48.61947800;9.05303100;2023-03-03T04:24:45;38.87;;;23.90;;
7823;SDS011;3957;48.61947800;9.05303100;2023-03-03T04:25:48;38.28;;;22.80;;
7823;SDS011;3957;48.61947800;9.05303100;2023-03-03T04:26:49;39.15;;;22.48;;
7823;SDS011;3957;48.61947800;9.05303100;2023-03-03T04:27:50;35.10;;;21.50;;
7823;SDS011;3957;48.61947800;9.05303100;2023-03-03T04:28:53;34.45;;;22.20;;
7823;SDS011;3957;48.61947800;9.05303100;2023-03-03T04:29:54;39.50;;;23.73;;
7823;SDS011;3957;48.61947800;9.05303100;2023-03-03T04:30:55;37.65;;;22.65;;
7823;SDS011;3957;48.61947800;9.05303100;2023-03-03T04:31:58;36.83;;;23.10;;
7823;SDS011;3957;48.61947800;9.05303100;2023-03-03T04:32:58;38.57;;;24.10;;
7823;SDS011;3957;48.61947800;9.05303100;2023-03-03T04:34:00;39.47;;;23.23;;
7823;SDS011;3957;48.61947800;9.05303100;2023-03-03T04:35:01;39.25;;;22.90;;
7823;SDS011;3957;48.61947800;9.05303100;2023-03-03T04:36:03;38.17;;;22.73;;
7823;SDS011;3957;48.61947800;9.05303100;2023-03-03T04:37:04;39.00;;;24.02;;
7823;SDS011;3957;48.61947800;9.05303100;2023-03-03T04:38:05;41.43;;;23.10;;
7823;SDS011;3957;48.61947800;9.05303100;2023-03-03T04:39:05;35.73;;;22.80;;
7823;SDS011;3957;48.61947800;9.05303100;2023-03-03T04:40:06;37.60;;;22.83;;
7823;SDS011;3957;48.61947800;9.05303100;2023-03-03T04:41:08;45.22;;;25.02;;
7823;SDS011;3957;48.61947800;9.05303100;2023-03-03T04:42:11;38.47;;;24.63;;
7823;SDS011;3957;48.61947800;9.05303100;2023-03-03T04:43:11;41.25;;;22.85;;
7823;SDS011;3957;48.61947800;9.05303100;2023-03-03T04:44:12;39.10;;;24.53;;
7823;SDS011;3957;48.61947800;9.05303100;2023-03-03T04:45:12;41.67;;;24.07;;
7823;SDS011;3957;48.61947800;9.05303100;2023-03-03T04:46:13;40.28;;;24.30;;
7823;SDS011;3957;48.61947800;9.05303100;2023-03-03T04:47:13;37.87;;;23.37;;
7823;SDS011;3957;48.61947800;9.05303100;2023-03-03T04:48:14;43.07;;;23.50;;
7823;SDS011;3957;48.61947800;9.05303100;2023-03-03T04:49:15;37.00;;;23.30;;
7823;SDS011;3957;48.61947800;9.05303100;2023-03-03T04:50:16;39.15;;;23.05;;
7823;SDS011;3957;48.61947800;9.05303100;2023-03-03T04:51:17;40.93;;;24.20;;
7823;SDS011;3957;48.61947800;9.05303100;2023-03-03T04:52:18;43.53;;;25.20;;
7823;SDS011;3957;48.61947800;9.05303100;2023-03-03T04:53:19;42.03;;;24.88;;
7823;SDS011;3957;48.61947800;9.05303100;2023-03-03T04:54:20;43.85;;;25.33;;
7823;SDS011;3957;48.61947800;9.05303100;2023-03-03T04:55:20;44.70;;;26.40;;
7823;SDS011;3957;48.61947800;9.05303100;2023-03-03T04:56:22;44.83;;;26.15;;
7823;SDS011;3957;48.61947800;9.05303100;2023-03-03T04:57:23;42.92;;;25.67;;
7823;SDS011;3957;48.61947800;9.05303100;2023-03-03T04:58:23;47.63;;;26.45;;
7823;SDS011;3957;48.61947800;9.05303100;2023-03-03T04:59:25;47.75;;;27.92;;
7823;SDS011;3957;48.61947800;9.05303100;2023-03-03T05:00:26;51.88;;;31.58;;
7823;SDS011;3957;48.61947800;9.05303100;2023-03-03T05:01:27;58.03;;;33.45;;
7823;SDS011;3957;48.61947800;9.05303100;2023-03-03T05:02:28;52.50;;;32.22;;
7823;SDS011;3957;48.61947800;9.05303100;2023-03-03T05:03:29;51.47;;;31.47;;
7823;SDS011;3957;48.61947800;9.05303100;2023-03-03T05:04:29;51.00;;;31.73;;
7823;SDS011;3957;48.61947800;9.05303100;2023-03-03T05:05:30;53.80;;;32.43;;
7823;SDS011;3957;48.61947800;9.05303100;2023-03-03T05:06:30;54.37;;;32.87;;
7823;SDS011;3957;48.61947800;9.05303100;2023-03-03T05:07:31;56.70;;;32.97;;
7823;SDS011;3957;48.61947800;9.05303100;2023-03-03T05:08:31;55.80;;;33.13;;
7823;SDS011;3957;48.61947800;9.05303100;2023-03-03T05:09:31;58.90;;;33.57;;
7823;SDS011;3957;48.61947800;9.05303100;2023-03-03T05:10:32;49.83;;;31.00;;
7823;SDS011;3957;48.61947800;9.05303100;2023-03-03T05:11:32;53.23;;;31.57;;
7823;SDS011;3957;48.61947800;9.05303100;2023-03-03T05:12:32;48.67;;;30.47;;
7823;SDS011;3957;48.61947800;9.05303100;2023-03-03T05:13:33;50.67;;;28.90;;
7823;SDS011;3957;48.61947800;9.05303100;2023-03-03T05:14:34;48.57;;;28.37;;
7823;SDS011;3957;48.61947800;9.05303100;2023-03-03T05:15:34;47.55;;;28.10;;
7823;SDS011;3957;48.61947800;9.05303100;2023-03-03T05:16:34;47.27;;;28.00;;
7823;SDS011;3957;48.61947800;9.05303100;2023-03-03T05:17:35;50.00;;;28.00;;
7823;SDS011;3957;48.61947800;9.05303100;2023-03-03T05:18:36;47.22;;;27.15;;
7823;SDS011;3957;48.61947800;9.05303100;2023-03-03T05:19:36;48.30;;;29.67;;
7823;SDS011;3957;48.61947800;9.05303100;2023-03-03T05:20:38;45.13;;;27.80;;
7823;SDS011;3957;48.61947800;9.05303100;2023-03-03T05:21:39;48.28;;;27.88;;
7823;SDS011;3957;48.61947800;9.05303100;2023-03-03T05:22:41;46.53;;;29.02;;
7823;SDS011;3957;48.61947800;9.05303100;2023-03-03T05:23:41;51.30;;;29.73;;
7823;SDS011;3957;48.61947800;9.05303100;2023-03-03T05:24:42;45.00;;;28.27;;
7823;SDS011;3957;48.61947800;9.05303100;2023-03-03T05:25:43;51.20;;;28.27;;
7823;SDS011;3957;48.61947800;9.05303100;2023-03-03T05:26:43;52.58;;;31.45;;
7823;SDS011;3957;48.61947800;9.05303100;2023-03-03T05:27:45;49.23;;;29.37;;
7823;SDS011;3957;48.61947800;9.05303100;2023-03-03T05:28:45;48.58;;;30.38;;
7823;SDS011;3957;48.61947800;9.05303100;2023-03-03T05:29:46;52.97;;;31.27;;
7823;SDS011;3957;48.61947800;9.05303100;2023-03-03T05:30:46;45.70;;;29.43;;
7823;SDS011;3957;48.61947800;9.05303100;2023-03-03T05:31:46;52.28;;;30.23;;
7823;SDS011;3957;48.61947800;9.05303100;2023-03-03T05:32:47;51.20;;;29.47;;
7823;SDS011;3957;48.61947800;9.05303100;2023-03-03T05:33:48;48.17;;;29.98;;
7823;SDS011;3957;48.61947800;9.05303100;2023-03-03T05:34:48;46.87;;;28.40;;
7823;SDS011;3957;48.61947800;9.05303100;2023-03-03T05:35:56;48.83;;;28.27;;
7823;SDS011;3957;48.61947800;9.05303100;2023-03-03T05:36:56;48.00;;;29.00;;
7823;SDS011;3957;48.61947800;9.05303100;2023-03-03T05:37:57;51.35;;;29.25;;
7823;SDS011;3957;48.61947800;9.05303100;2023-03-03T05:38:58;52.60;;;28.70;;
7823;SDS011;3957;48.61947800;9.05303100;2023-03-03T05:39:58;49.50;;;28.13;;